Time,TemperatureF,DewpointF,PressureIn,WindDirection,WindDirectionDegrees,WindSpeedMPH,WindSpeedGustMPH,Humidity,HourlyPrecipIn,Conditions,Clouds,dailyrainin,SolarRadiationWatts/m^2,SoftwareType,DateUTC
2013-11-16 00:22:00,33.0,25.0,-100.00,WSW,252,11.0,20.0,73,0.00,,,0.00,0.000000,,2013-11-16 08:22:00,
2013-11-16 00:32:00,33.0,25.0,-100.00,WSW,252,11.0,20.0,73,0.00,,,0.00,0.000000,,2013-11-16 08:32:00,
2013-11-16 00:41:00,33.0,25.0,-100.00,WSW,252,11.0,20.0,73,0.00,,,0.00,0.000000,,2013-11-16 08:41:00,
2013-11-16 00:52:00,33.0,25.0,-100.00,WSW,252,11.0,20.0,73,0.00,,,0.00,0.000000,,2013-11-16 08:52:00,
2013-11-16 01:22:00,34.0,27.0,-100.00,WSW,250,14.0,24.0,76,0.00,,,0.00,0.000000,,2013-11-16 09:22:00,
2013-11-16 01:33:00,34.0,27.0,-100.00,WSW,250,14.0,24.0,76,0.00,,,0.00,0.000000,,2013-11-16 09:33:00,
2013-11-16 01:42:00,34.0,27.0,-100.00,WSW,250,14.0,24.0,76,0.00,,,0.00,0.000000,,2013-11-16 09:42:00,
2013-11-16 01:53:00,34.0,27.0,-100.00,WSW,250,14.0,24.0,76,0.00,,,0.00,0.000000,,2013-11-16 09:53:00,
2013-11-16 02:23:00,35.0,29.0,-100.00,SW,220,11.0,18.0,77,0.00,,,0.00,0.000000,,2013-11-16 10:23:00,
2013-11-16 02:33:00,35.0,29.0,-100.00,SW,220,11.0,18.0,77,0.00,,,0.00,0.000000,,2013-11-16 10:33:00,
2013-11-16 02:42:00,35.0,29.0,-100.00,SW,220,11.0,18.0,77,0.00,,,0.00,0.000000,,2013-11-16 10:42:00,
2013-11-16 02:52:00,35.0,29.0,-100.00,SW,220,11.0,18.0,77,0.00,,,0.00,0.000000,,2013-11-16 10:52:00,
2013-11-16 03:22:00,35.0,29.0,-100.00,SSW,209,8.0,18.0,79,0.00,,,0.00,0.000000,,2013-11-16 11:22:00,
2013-11-16 03:32:00,35.0,29.0,-100.00,SSW,209,8.0,18.0,79,0.00,,,0.00,0.000000,,2013-11-16 11:32:00,
2013-11-16 03:42:00,35.0,29.0,-100.00,SSW,209,8.0,18.0,79,0.00,,,0.00,0.000000,,2013-11-16 11:42:00,
2013-11-16 03:52:00,35.0,29.0,-100.00,SSW,209,8.0,18.0,79,0.00,,,0.00,0.000000,,2013-11-16 11:52:00,
2013-11-16 04:21:00,35.0,29.0,-100.00,South,180,6.0,12.0,80,0.00,,,0.00,0.000000,,2013-11-16 12:21:00,
2013-11-16 04:32:00,35.0,29.0,-100.00,South,180,6.0,12.0,80,0.00,,,0.00,0.000000,,2013-11-16 12:32:00,
2013-11-16 04:42:00,35.0,29.0,-100.00,South,180,6.0,12.0,80,0.00,,,0.00,0.000000,,2013-11-16 12:42:00,
2013-11-16 04:52:00,35.0,29.0,-100.00,South,180,6.0,12.0,80,0.00,,,0.00,0.000000,,2013-11-16 12:52:00,
2013-11-16 05:21:00,38.0,30.0,-100.00,SW,217,8.0,18.0,72,0.00,,,0.00,0.000000,,2013-11-16 13:21:00,
2013-11-16 05:32:00,38.0,30.0,-100.00,SW,217,8.0,18.0,72,0.00,,,0.00,0.000000,,2013-11-16 13:32:00,
2013-11-16 05:42:00,38.0,30.0,-100.00,SW,217,8.0,18.0,72,0.00,,,0.00,0.000000,,2013-11-16 13:42:00,
2013-11-16 05:52:00,38.0,30.0,-100.00,SW,217,8.0,18.0,72,0.00,,,0.00,0.000000,,2013-11-16 13:52:00,
2013-11-16 06:22:00,38.0,29.0,-100.00,West,270,13.0,25.0,70,0.00,,,0.00,0.000000,,2013-11-16 14:22:00,
2013-11-16 06:32:00,38.0,29.0,-100.00,West,270,13.0,25.0,70,0.00,,,0.00,0.000000,,2013-11-16 14:32:00,
2013-11-16 06:42:00,38.0,29.0,-100.00,West,270,13.0,25.0,70,0.00,,,0.00,0.000000,,2013-11-16 14:42:00,
2013-11-16 06:52:00,38.0,29.0,-100.00,West,270,13.0,25.0,70,0.00,,,0.00,0.000000,,2013-11-16 14:52:00,
2013-11-16 07:21:00,39.0,29.0,-100.00,West,277,23.0,39.0,66,0.00,,,0.00,0.000000,,2013-11-16 15:21:00,
2013-11-16 07:33:00,39.0,29.0,-100.00,West,277,23.0,39.0,66,0.00,,,0.00,0.000000,,2013-11-16 15:33:00,
2013-11-16 07:43:00,39.0,29.0,-100.00,West,277,23.0,39.0,66,0.00,,,0.00,0.000000,,2013-11-16 15:43:00,
2013-11-16 07:53:00,39.0,29.0,-100.00,West,277,23.0,39.0,66,0.00,,,0.00,0.000000,,2013-11-16 15:53:00,
2013-11-16 08:23:00,39.0,29.0,-100.00,West,277,17.0,39.0,68,0.00,,,0.00,14.000000,,2013-11-16 16:23:00,
2013-11-16 08:33:00,39.0,29.0,-100.00,West,277,17.0,39.0,68,0.00,,,0.00,14.000000,,2013-11-16 16:33:00,
2013-11-16 08:43:00,39.0,29.0,-100.00,West,277,17.0,39.0,68,0.00,,,0.00,14.000000,,2013-11-16 16:43:00,
2013-11-16 08:53:00,39.0,29.0,-100.00,West,277,17.0,39.0,68,0.00,,,0.00,14.000000,,2013-11-16 16:53:00,
2013-11-16 09:22:00,39.0,29.0,-100.00,WSW,258,12.0,32.0,68,0.00,,,0.00,68.000000,,2013-11-16 17:22:00,
2013-11-16 09:33:00,39.0,29.0,-100.00,WSW,258,12.0,32.0,68,0.00,,,0.00,68.000000,,2013-11-16 17:33:00,
2013-11-16 09:42:00,39.0,29.0,-100.00,WSW,258,12.0,32.0,68,0.00,,,0.00,68.000000,,2013-11-16 17:42:00,
2013-11-16 09:52:00,39.0,29.0,-100.00,WSW,258,12.0,32.0,68,0.00,,,0.00,68.000000,,2013-11-16 17:52:00,
2013-11-16 10:23:00,39.0,30.0,-100.00,WSW,257,13.0,24.0,71,0.00,,,0.00,145.000000,,2013-11-16 18:23:00,
2013-11-16 10:32:00,39.0,30.0,-100.00,WSW,257,13.0,24.0,71,0.00,,,0.00,145.000000,,2013-11-16 18:32:00,
2013-11-16 10:42:00,39.0,30.0,-100.00,WSW,257,13.0,24.0,71,0.00,,,0.00,145.000000,,2013-11-16 18:42:00,
2013-11-16 10:52:00,39.0,30.0,-100.00,WSW,257,13.0,24.0,71,0.00,,,0.00,145.000000,,2013-11-16 18:52:00,
2013-11-16 11:22:00,42.0,30.0,-100.00,WSW,258,12.0,27.0,63,0.00,,,0.00,299.000000,,2013-11-16 19:22:00,
2013-11-16 11:32:00,42.0,30.0,-100.00,WSW,258,12.0,27.0,63,0.00,,,0.00,299.000000,,2013-11-16 19:32:00,
2013-11-16 11:42:00,42.0,30.0,-100.00,WSW,258,12.0,27.0,63,0.00,,,0.00,299.000000,,2013-11-16 19:42:00,
2013-11-16 11:53:00,42.0,30.0,-100.00,WSW,258,12.0,27.0,63,0.00,,,0.00,299.000000,,2013-11-16 19:53:00,
2013-11-16 12:22:00,43.0,30.0,-100.00,WSW,240,12.0,22.0,61,0.00,,,0.00,574.000000,,2013-11-16 20:22:00,
2013-11-16 12:32:00,43.0,30.0,-100.00,WSW,240,12.0,22.0,61,0.00,,,0.00,574.000000,,2013-11-16 20:32:00,
2013-11-16 12:42:00,43.0,30.0,-100.00,WSW,240,12.0,22.0,61,0.00,,,0.00,574.000000,,2013-11-16 20:42:00,
2013-11-16 12:53:00,43.0,30.0,-100.00,WSW,240,12.0,22.0,61,0.00,,,0.00,574.000000,,2013-11-16 20:53:00,
2013-11-16 13:21:00,43.0,30.0,-100.00,WSW,242,13.0,23.0,60,0.00,,,0.00,572.000000,,2013-11-16 21:21:00,
2013-11-16 13:34:00,43.0,30.0,-100.00,WSW,242,13.0,23.0,60,0.00,,,0.00,572.000000,,2013-11-16 21:34:00,
2013-11-16 13:44:00,43.0,30.0,-100.00,WSW,242,13.0,23.0,60,0.00,,,0.00,572.000000,,2013-11-16 21:44:00,
2013-11-16 13:54:00,43.0,30.0,-100.00,WSW,242,13.0,23.0,60,0.00,,,0.00,572.000000,,2013-11-16 21:54:00,
2013-11-16 14:24:00,41.0,31.0,-100.00,WSW,256,12.0,22.0,66,0.00,,,0.00,408.000000,,2013-11-16 22:24:00,
2013-11-16 14:34:00,41.0,31.0,-100.00,WSW,256,12.0,22.0,66,0.00,,,0.00,408.000000,,2013-11-16 22:34:00,
2013-11-16 14:42:00,41.0,31.0,-100.00,WSW,256,12.0,22.0,66,0.00,,,0.00,408.000000,,2013-11-16 22:42:00,
2013-11-16 14:53:00,41.0,31.0,-100.00,WSW,256,12.0,22.0,66,0.00,,,0.00,408.000000,,2013-11-16 22:53:00,
2013-11-16 15:22:00,39.0,25.0,-100.00,WSW,258,14.0,23.0,58,0.00,,,0.00,282.000000,,2013-11-16 23:22:00,
2013-11-16 15:34:00,39.0,25.0,-100.00,WSW,258,14.0,23.0,58,0.00,,,0.00,282.000000,,2013-11-16 23:34:00,
2013-11-16 15:43:00,39.0,25.0,-100.00,WSW,258,14.0,23.0,58,0.00,,,0.00,282.000000,,2013-11-16 23:43:00,
2013-11-16 15:53:00,39.0,25.0,-100.00,WSW,258,14.0,23.0,58,0.00,,,0.00,282.000000,,2013-11-16 23:53:00,
2013-11-16 16:22:00,37.0,28.0,-100.00,WSW,251,12.0,21.0,70,0.00,,,0.00,98.000000,,2013-11-17 00:22:00,
2013-11-16 16:32:00,37.0,28.0,-100.00,WSW,251,12.0,21.0,70,0.00,,,0.00,98.000000,,2013-11-17 00:32:00,
2013-11-16 16:42:00,37.0,28.0,-100.00,WSW,251,12.0,21.0,70,0.00,,,0.00,98.000000,,2013-11-17 00:42:00,
2013-11-16 16:52:00,37.0,28.0,-100.00,WSW,251,12.0,21.0,70,0.00,,,0.00,98.000000,,2013-11-17 00:52:00,
2013-11-16 17:22:00,37.0,28.0,-100.00,SW,226,6.0,15.0,70,0.00,,,0.00,13.000000,,2013-11-17 01:22:00,
2013-11-16 17:32:00,37.0,28.0,-100.00,SW,226,6.0,15.0,70,0.00,,,0.00,13.000000,,2013-11-17 01:32:00,
2013-11-16 17:42:00,37.0,28.0,-100.00,SW,226,6.0,15.0,70,0.00,,,0.00,13.000000,,2013-11-17 01:42:00,
2013-11-16 17:52:00,37.0,28.0,-100.00,SW,226,6.0,15.0,70,0.00,,,0.00,13.000000,,2013-11-17 01:52:00,
2013-11-16 18:21:00,36.0,30.0,-100.00,WSW,240,11.0,21.0,79,0.00,,,0.00,0.000000,,2013-11-17 02:21:00,
2013-11-16 18:32:00,36.0,30.0,-100.00,WSW,240,11.0,21.0,79,0.00,,,0.00,0.000000,,2013-11-17 02:32:00,
2013-11-16 18:42:00,36.0,30.0,-100.00,WSW,240,11.0,21.0,79,0.00,,,0.00,0.000000,,2013-11-17 02:42:00,
2013-11-16 18:52:00,36.0,30.0,-100.00,WSW,240,11.0,21.0,79,0.00,,,0.00,0.000000,,2013-11-17 02:52:00,
2013-11-16 19:22:00,36.0,27.0,-100.00,WSW,246,11.0,19.0,69,0.00,,,0.00,0.000000,,2013-11-17 03:22:00,
2013-11-16 19:34:00,36.0,27.0,-100.00,WSW,246,11.0,19.0,69,0.00,,,0.00,0.000000,,2013-11-17 03:34:00,
2013-11-16 19:44:00,36.0,27.0,-100.00,WSW,246,11.0,19.0,69,0.00,,,0.00,0.000000,,2013-11-17 03:44:00,
2013-11-16 19:55:00,36.0,27.0,-100.00,WSW,246,11.0,19.0,69,0.00,,,0.00,0.000000,,2013-11-17 03:55:00,
2013-11-16 20:24:00,34.0,29.0,-100.00,WSW,255,8.0,17.0,83,0.00,,,0.00,0.000000,,2013-11-17 04:24:00,
2013-11-16 20:34:00,34.0,29.0,-100.00,WSW,255,8.0,17.0,83,0.00,,,0.00,0.000000,,2013-11-17 04:34:00,
2013-11-16 20:43:00,34.0,29.0,-100.00,WSW,255,8.0,17.0,83,0.00,,,0.00,0.000000,,2013-11-17 04:43:00,
2013-11-16 20:53:00,34.0,29.0,-100.00,WSW,255,8.0,17.0,83,0.00,,,0.00,0.000000,,2013-11-17 04:53:00,
2013-11-16 21:23:00,33.0,31.0,-100.00,SW,234,7.0,12.0,91,0.00,,,0.00,0.000000,,2013-11-17 05:23:00,
2013-11-16 21:34:00,33.0,31.0,-100.00,SW,234,7.0,12.0,91,0.00,,,0.00,0.000000,,2013-11-17 05:34:00,
2013-11-16 21:44:00,33.0,31.0,-100.00,SW,234,7.0,12.0,91,0.00,,,0.00,0.000000,,2013-11-17 05:44:00,
2013-11-16 21:53:00,33.0,31.0,-100.00,SW,234,7.0,12.0,91,0.00,,,0.00,0.000000,,2013-11-17 05:53:00,
2013-11-16 22:22:00,33.0,29.0,-100.00,SW,222,10.0,17.0,85,0.00,,,0.00,0.000000,,2013-11-17 06:22:00,
2013-11-16 22:32:00,33.0,29.0,-100.00,SW,222,10.0,17.0,85,0.00,,,0.00,0.000000,,2013-11-17 06:32:00,
2013-11-16 22:42:00,33.0,29.0,-100.00,SW,222,10.0,17.0,85,0.00,,,0.00,0.000000,,2013-11-17 06:42:00,
2013-11-16 22:52:00,33.0,29.0,-100.00,SW,222,10.0,17.0,85,0.00,,,0.00,0.000000,,2013-11-17 06:52:00,
2013-11-16 23:22:00,34.0,27.0,-100.00,SW,231,10.0,15.0,76,0.00,,,0.00,0.000000,,2013-11-17 07:22:00,
2013-11-16 23:32:00,34.0,27.0,-100.00,SW,231,10.0,15.0,76,0.00,,,0.00,0.000000,,2013-11-17 07:32:00,
2013-11-16 23:42:00,34.0,27.0,-100.00,SW,231,10.0,15.0,76,0.00,,,0.00,0.000000,,2013-11-17 07:42:00,
2013-11-16 23:53:00,34.0,27.0,-100.00,SW,231,10.0,15.0,76,0.00,,,0.00,0.000000,,2013-11-17 07:53:00,